PWSweather.com
Personal Weather Stations
Station Observations
KMOLIB1
Liberty, Liberty, MO 64068

LibertyLiberty, MO 64068

Lat: 39.24, Lon: -94.45

Elevation: 866

Station Type:

High Low Average
Temperature 64.0°F17.8°C 29.0°F-1.7°C 45.6°F7.6°C
Dew Point 41.6°F5.3°C 8.2°F-13.2°C 24.8°F-4.0°C
Winds 11.0 mph 17.7 kmh Calm Calm 2.0 mph SW3.2 kmh SW
Wind Gusts 16.0 mph25.7 kmh 1.0 mph1.6 kmh 12.0 mph19.3 kmh
Humidity 48% 39% 44%
Pressure 210.83 in7139.5 mb 210.62 in7132.4 mb -
Precipitation 0.00 in0.0 mm - -
Hour Temp Dew Point Humidity Winds Wind Gusts Pressure Precip Precip Rate Daily Precip Total
12:00 AM 35.0°F1.7°C 15.3°F-9.3°C 44% 1.0 mph WNW1.6 kmh WNW 1.0 mph1.6 kmh 210.83 in7139.5 mb 0.00 in0.0 mm 0.00 in0.0 mm 0.00 in0.0 mm
12:05 AM 35.0°F1.7°C 15.3°F-9.3°C 44% 1.0 mph WNW1.6 kmh WNW 4.0 mph6.4 kmh 210.83 in7139.5 mb 0.00 in0.0 mm 0.00 in0.0 mm 0.00 in0.0 mm
12:10 AM 35.0°F1.7°C 15.3°F-9.3°C 44% 2.0 mph WNW3.2 kmh WNW 5.0 mph8.0 kmh 210.83 in7139.5 mb 0.00 in0.0 mm 0.00 in0.0 mm 0.00 in0.0 mm
12:15 AM 35.0°F1.7°C 15.3°F-9.3°C 44% 3.0 mph WNW4.8 kmh WNW 5.0 mph8.0 kmh 210.82 in7139.2 mb 0.00 in0.0 mm 0.00 in0.0 mm 0.00 in0.0 mm
12:20 AM 35.0°F1.7°C 15.3°F-9.3°C 44% 2.0 mph WNW3.2 kmh WNW 5.0 mph8.0 kmh 210.82 in7139.2 mb 0.00 in0.0 mm 0.00 in0.0 mm 0.00 in0.0 mm
12:25 AM 35.0°F1.7°C 15.3°F-9.3°C 44% 4.0 mph WSW6.4 kmh WSW 6.0 mph9.7 kmh 210.82 in7139.2 mb 0.00 in0.0 mm 0.00 in0.0 mm 0.00 in0.0 mm
12:30 AM 35.0°F1.7°C 15.3°F-9.3°C 44% 3.0 mph WNW4.8 kmh WNW 6.0 mph9.7 kmh 210.82 in7139.2 mb 0.00 in0.0 mm 0.00 in0.0 mm 0.00 in0.0 mm
12:35 AM 35.0°F1.7°C 15.3°F-9.3°C 44% 3.0 mph WNW4.8 kmh WNW 6.0 mph9.7 kmh 210.82 in7139.2 mb 0.00 in0.0 mm 0.00 in0.0 mm 0.00 in0.0 mm
12:40 AM 35.0°F1.7°C 15.3°F-9.3°C 44% 4.0 mph WNW6.4 kmh WNW 6.0 mph9.7 kmh 210.82 in7139.2 mb 0.00 in0.0 mm 0.00 in0.0 mm 0.00 in0.0 mm
12:45 AM 35.0°F1.7°C 15.3°F-9.3°C 44% 2.0 mph NW3.2 kmh NW 7.0 mph11.3 kmh 210.82 in7139.2 mb 0.00 in0.0 mm 0.00 in0.0 mm 0.00 in0.0 mm
12:50 AM 34.0°F1.1°C 14.4°F-9.8°C 44% 3.0 mph W4.8 kmh W 7.0 mph11.3 kmh 210.82 in7139.2 mb 0.00 in0.0 mm 0.00 in0.0 mm 0.00 in0.0 mm
12:55 AM 34.0°F1.1°C 14.4°F-9.8°C 44% 1.0 mph W1.6 kmh W 7.0 mph11.3 kmh 210.83 in7139.5 mb 0.00 in0.0 mm 0.00 in0.0 mm 0.00 in0.0 mm
01:00 AM 34.0°F1.1°C 14.4°F-9.8°C 44% Calm Calm 7.0 mph11.3 kmh 210.83 in7139.5 mb 0.00 in0.0 mm 0.00 in0.0 mm 0.00 in0.0 mm
01:05 AM 34.0°F1.1°C 14.4°F-9.8°C 44% Calm Calm 7.0 mph11.3 kmh 210.82 in7139.2 mb 0.00 in0.0 mm 0.00 in0.0 mm 0.00 in0.0 mm
01:10 AM 33.0°F0.6°C 13.4°F-10.3°C 44% Calm Calm 7.0 mph11.3 kmh 210.82 in7139.2 mb 0.00 in0.0 mm 0.00 in0.0 mm 0.00 in0.0 mm
01:15 AM 33.0°F0.6°C 13.4°F-10.3°C 44% Calm Calm 7.0 mph11.3 kmh 210.83 in7139.5 mb 0.00 in0.0 mm 0.00 in0.0 mm 0.00 in0.0 mm
01:20 AM 33.0°F0.6°C 13.4°F-10.3°C 44% Calm Calm 7.0 mph11.3 kmh 210.83 in7139.5 mb 0.00 in0.0 mm 0.00 in0.0 mm 0.00 in0.0 mm
01:25 AM 33.0°F0.6°C 13.4°F-10.3°C 44% Calm Calm 7.0 mph11.3 kmh 210.82 in7139.2 mb 0.00 in0.0 mm 0.00 in0.0 mm 0.00 in0.0 mm
01:30 AM 33.0°F0.6°C 13.4°F-10.3°C 44% 1.0 mph W1.6 kmh W 7.0 mph11.3 kmh 210.82 in7139.2 mb 0.00 in0.0 mm 0.00 in0.0 mm 0.00 in0.0 mm
01:35 AM 33.0°F0.6°C 13.4°F-10.3°C 44% 1.0 mph W1.6 kmh W 7.0 mph11.3 kmh 210.82 in7139.2 mb 0.00 in0.0 mm 0.00 in0.0 mm 0.00 in0.0 mm
01:40 AM 33.0°F0.6°C 13.4°F-10.3°C 44% 1.0 mph NW1.6 kmh NW 7.0 mph11.3 kmh 210.82 in7139.2 mb 0.00 in0.0 mm 0.00 in0.0 mm 0.00 in0.0 mm
01:45 AM 33.0°F0.6°C 13.4°F-10.3°C 44% Calm Calm 7.0 mph11.3 kmh 210.82 in7139.2 mb 0.00 in0.0 mm 0.00 in0.0 mm 0.00 in0.0 mm
01:50 AM 33.0°F0.6°C 13.4°F-10.3°C 44% 1.0 mph WSW1.6 kmh WSW 7.0 mph11.3 kmh 210.82 in7139.2 mb 0.00 in0.0 mm 0.00 in0.0 mm 0.00 in0.0 mm
01:55 AM 33.0°F0.6°C 13.4°F-10.3°C 44% Calm Calm 7.0 mph11.3 kmh 210.83 in7139.5 mb 0.00 in0.0 mm 0.00 in0.0 mm 0.00 in0.0 mm
02:00 AM 33.0°F0.6°C 13.4°F-10.3°C 44% 3.0 mph WSW4.8 kmh WSW 7.0 mph11.3 kmh 210.83 in7139.5 mb 0.00 in0.0 mm 0.00 in0.0 mm 0.00 in0.0 mm
02:05 AM 32.0°F0.0°C 12.5°F-10.8°C 44% Calm Calm 7.0 mph11.3 kmh 210.82 in7139.2 mb 0.00 in0.0 mm 0.00 in0.0 mm 0.00 in0.0 mm
02:10 AM 32.0°F0.0°C 12.0°F-11.1°C 43% Calm Calm 7.0 mph11.3 kmh 210.82 in7139.2 mb 0.00 in0.0 mm 0.00 in0.0 mm 0.00 in0.0 mm
02:15 AM 32.0°F0.0°C 12.5°F-10.8°C 44% Calm Calm 7.0 mph11.3 kmh 210.83 in7139.5 mb 0.00 in0.0 mm 0.00 in0.0 mm 0.00 in0.0 mm
02:20 AM 32.0°F0.0°C 12.0°F-11.1°C 43% Calm Calm 7.0 mph11.3 kmh 210.83 in7139.5 mb 0.00 in0.0 mm 0.00 in0.0 mm 0.00 in0.0 mm
02:25 AM 32.0°F0.0°C 12.5°F-10.8°C 44% Calm Calm 7.0 mph11.3 kmh 210.83 in7139.5 mb 0.00 in0.0 mm 0.00 in0.0 mm 0.00 in0.0 mm
02:30 AM 32.0°F0.0°C 12.5°F-10.8°C 44% Calm Calm 7.0 mph11.3 kmh 210.83 in7139.5 mb 0.00 in0.0 mm 0.00 in0.0 mm 0.00 in0.0 mm
02:35 AM 32.0°F0.0°C 12.5°F-10.8°C 44% Calm Calm 7.0 mph11.3 kmh 210.83 in7139.5 mb 0.00 in0.0 mm 0.00 in0.0 mm 0.00 in0.0 mm
02:40 AM 32.0°F0.0°C 12.5°F-10.8°C 44% Calm Calm 7.0 mph11.3 kmh 210.83 in7139.5 mb 0.00 in0.0 mm 0.00 in0.0 mm 0.00 in0.0 mm
02:45 AM 32.0°F0.0°C 12.5°F-10.8°C 44% 1.0 mph SW1.6 kmh SW 7.0 mph11.3 kmh 210.83 in7139.5 mb 0.00 in0.0 mm 0.00 in0.0 mm 0.00 in0.0 mm
02:50 AM 32.0°F0.0°C 12.0°F-11.1°C 43% 2.0 mph S3.2 kmh S 7.0 mph11.3 kmh 210.83 in7139.5 mb 0.00 in0.0 mm 0.00 in0.0 mm 0.00 in0.0 mm
02:55 AM 32.0°F0.0°C 12.5°F-10.8°C 44% 4.0 mph SW6.4 kmh SW 7.0 mph11.3 kmh 210.83 in7139.5 mb 0.00 in0.0 mm 0.00 in0.0 mm 0.00 in0.0 mm
03:00 AM 32.0°F0.0°C 12.0°F-11.1°C 43% 1.0 mph SSW1.6 kmh SSW 7.0 mph11.3 kmh 210.83 in7139.5 mb 0.00 in0.0 mm 0.00 in0.0 mm 0.00 in0.0 mm
03:05 AM 32.0°F0.0°C 9.8°F-12.3°C 39% 1.0 mph SSW1.6 kmh SSW 7.0 mph11.3 kmh 210.83 in7139.5 mb 0.00 in0.0 mm 0.00 in0.0 mm 0.00 in0.0 mm
03:10 AM 31.0°F-0.6°C 10.6°F-11.9°C 42% Calm Calm 7.0 mph11.3 kmh 210.83 in7139.5 mb 0.00 in0.0 mm 0.00 in0.0 mm 0.00 in0.0 mm
03:15 AM 31.0°F-0.6°C 10.6°F-11.9°C 42% 2.0 mph SSW3.2 kmh SSW 7.0 mph11.3 kmh 210.83 in7139.5 mb 0.00 in0.0 mm 0.00 in0.0 mm 0.00 in0.0 mm
03:20 AM 31.0°F-0.6°C 12.6°F-10.8°C 46% Calm Calm 7.0 mph11.3 kmh 210.83 in7139.5 mb 0.00 in0.0 mm 0.00 in0.0 mm 0.00 in0.0 mm
03:25 AM 32.0°F0.0°C 12.5°F-10.8°C 44% 1.0 mph SW1.6 kmh SW 7.0 mph11.3 kmh 210.81 in7138.8 mb 0.00 in0.0 mm 0.00 in0.0 mm 0.00 in0.0 mm
03:30 AM 32.0°F0.0°C 12.0°F-11.1°C 43% Calm Calm 7.0 mph11.3 kmh 210.81 in7138.8 mb 0.00 in0.0 mm 0.00 in0.0 mm 0.00 in0.0 mm
03:35 AM 31.0°F-0.6°C 11.1°F-11.6°C 43% Calm Calm 7.0 mph11.3 kmh 210.81 in7138.8 mb 0.00 in0.0 mm 0.00 in0.0 mm 0.00 in0.0 mm
03:40 AM 31.0°F-0.6°C 11.6°F-11.3°C 44% Calm Calm 7.0 mph11.3 kmh 210.81 in7138.8 mb 0.00 in0.0 mm 0.00 in0.0 mm 0.00 in0.0 mm
03:45 AM 31.0°F-0.6°C 12.1°F-11.1°C 45% Calm Calm 7.0 mph11.3 kmh 210.82 in7139.2 mb 0.00 in0.0 mm 0.00 in0.0 mm 0.00 in0.0 mm
03:50 AM 31.0°F-0.6°C 10.6°F-11.9°C 42% Calm Calm 7.0 mph11.3 kmh 210.82 in7139.2 mb 0.00 in0.0 mm 0.00 in0.0 mm 0.00 in0.0 mm
03:55 AM 32.0°F0.0°C 12.0°F-11.1°C 43% Calm Calm 7.0 mph11.3 kmh 210.81 in7138.8 mb 0.00 in0.0 mm 0.00 in0.0 mm 0.00 in0.0 mm
04:00 AM 32.0°F0.0°C 12.0°F-11.1°C 43% Calm Calm 7.0 mph11.3 kmh 210.81 in7138.8 mb 0.00 in0.0 mm 0.00 in0.0 mm 0.00 in0.0 mm
04:05 AM 32.0°F0.0°C 12.0°F-11.1°C 43% 1.0 mph W1.6 kmh W 7.0 mph11.3 kmh 210.81 in7138.8 mb 0.00 in0.0 mm 0.00 in0.0 mm 0.00 in0.0 mm
04:10 AM 32.0°F0.0°C 12.5°F-10.8°C 44% Calm Calm 7.0 mph11.3 kmh 210.81 in7138.8 mb 0.00 in0.0 mm 0.00 in0.0 mm 0.00 in0.0 mm
04:15 AM 32.0°F0.0°C 13.0°F-10.6°C 45% Calm Calm 7.0 mph11.3 kmh 210.81 in7138.8 mb 0.00 in0.0 mm 0.00 in0.0 mm 0.00 in0.0 mm
04:20 AM 31.0°F-0.6°C 10.0°F-12.2°C 41% Calm Calm 7.0 mph11.3 kmh 210.81 in7138.8 mb 0.00 in0.0 mm 0.00 in0.0 mm 0.00 in0.0 mm
04:25 AM 31.0°F-0.6°C 11.1°F-11.6°C 43% Calm Calm 7.0 mph11.3 kmh 210.81 in7138.8 mb 0.00 in0.0 mm 0.00 in0.0 mm 0.00 in0.0 mm
04:30 AM 31.0°F-0.6°C 11.1°F-11.6°C 43% Calm Calm 7.0 mph11.3 kmh 210.81 in7138.8 mb 0.00 in0.0 mm 0.00 in0.0 mm 0.00 in0.0 mm
04:35 AM 30.0°F-1.1°C 10.2°F-12.1°C 43% 1.0 mph SSE1.6 kmh SSE 7.0 mph11.3 kmh 210.81 in7138.8 mb 0.00 in0.0 mm 0.00 in0.0 mm 0.00 in0.0 mm
04:40 AM 30.0°F-1.1°C 10.2°F-12.1°C 43% 1.0 mph SSE1.6 kmh SSE 7.0 mph11.3 kmh 210.81 in7138.8 mb 0.00 in0.0 mm 0.00 in0.0 mm 0.00 in0.0 mm
04:45 AM 31.0°F-0.6°C 10.6°F-11.9°C 42% Calm Calm 7.0 mph11.3 kmh 210.81 in7138.8 mb 0.00 in0.0 mm 0.00 in0.0 mm 0.00 in0.0 mm
04:50 AM 31.0°F-0.6°C 11.6°F-11.3°C 44% Calm Calm 7.0 mph11.3 kmh 210.81 in7138.8 mb 0.00 in0.0 mm 0.00 in0.0 mm 0.00 in0.0 mm
04:55 AM 31.0°F-0.6°C 10.0°F-12.2°C 41% 3.0 mph SW4.8 kmh SW 7.0 mph11.3 kmh 210.81 in7138.8 mb 0.00 in0.0 mm 0.00 in0.0 mm 0.00 in0.0 mm
05:00 AM 32.0°F0.0°C 12.0°F-11.1°C 43% 4.0 mph SSW6.4 kmh SSW 7.0 mph11.3 kmh 210.81 in7138.8 mb 0.00 in0.0 mm 0.00 in0.0 mm 0.00 in0.0 mm
05:05 AM 32.0°F0.0°C 12.5°F-10.8°C 44% 1.0 mph SSW1.6 kmh SSW 7.0 mph11.3 kmh 210.81 in7138.8 mb 0.00 in0.0 mm 0.00 in0.0 mm 0.00 in0.0 mm
05:10 AM 32.0°F0.0°C 11.5°F-11.4°C 42% 4.0 mph S6.4 kmh S 7.0 mph11.3 kmh 210.81 in7138.8 mb 0.00 in0.0 mm 0.00 in0.0 mm 0.00 in0.0 mm
05:15 AM 31.0°F-0.6°C 10.6°F-11.9°C 42% 3.0 mph S4.8 kmh S 7.0 mph11.3 kmh 210.81 in7138.8 mb 0.00 in0.0 mm 0.00 in0.0 mm 0.00 in0.0 mm
05:20 AM 31.0°F-0.6°C 10.6°F-11.9°C 42% 3.0 mph SSW4.8 kmh SSW 7.0 mph11.3 kmh 210.81 in7138.8 mb 0.00 in0.0 mm 0.00 in0.0 mm 0.00 in0.0 mm
05:25 AM 31.0°F-0.6°C 11.1°F-11.6°C 43% 4.0 mph SSW6.4 kmh SSW 7.0 mph11.3 kmh 210.81 in7138.8 mb 0.00 in0.0 mm 0.00 in0.0 mm 0.00 in0.0 mm
05:30 AM 31.0°F-0.6°C 10.6°F-11.9°C 42% 1.0 mph SW1.6 kmh SW 7.0 mph11.3 kmh 210.81 in7138.8 mb 0.00 in0.0 mm 0.00 in0.0 mm 0.00 in0.0 mm
05:35 AM 31.0°F-0.6°C 11.1°F-11.6°C 43% 1.0 mph SW1.6 kmh SW 7.0 mph11.3 kmh 210.81 in7138.8 mb 0.00 in0.0 mm 0.00 in0.0 mm 0.00 in0.0 mm
05:40 AM 31.0°F-0.6°C 11.1°F-11.6°C 43% Calm Calm 7.0 mph11.3 kmh 210.81 in7138.8 mb 0.00 in0.0 mm 0.00 in0.0 mm 0.00 in0.0 mm
05:45 AM 31.0°F-0.6°C 11.1°F-11.6°C 43% 2.0 mph SSW3.2 kmh SSW 7.0 mph11.3 kmh 210.82 in7139.2 mb 0.00 in0.0 mm 0.00 in0.0 mm 0.00 in0.0 mm
05:50 AM 31.0°F-0.6°C 11.1°F-11.6°C 43% 2.0 mph SSE3.2 kmh SSE 7.0 mph11.3 kmh 210.82 in7139.2 mb 0.00 in0.0 mm 0.00 in0.0 mm 0.00 in0.0 mm
05:55 AM 31.0°F-0.6°C 11.1°F-11.6°C 43% Calm Calm 7.0 mph11.3 kmh 210.82 in7139.2 mb 0.00 in0.0 mm 0.00 in0.0 mm 0.00 in0.0 mm
06:00 AM 30.0°F-1.1°C 10.2°F-12.1°C 43% Calm Calm 7.0 mph11.3 kmh 210.82 in7139.2 mb 0.00 in0.0 mm 0.00 in0.0 mm 0.00 in0.0 mm
06:05 AM 30.0°F-1.1°C 9.7°F-12.4°C 42% Calm Calm 7.0 mph11.3 kmh 210.82 in7139.2 mb 0.00 in0.0 mm 0.00 in0.0 mm 0.00 in0.0 mm
06:10 AM 29.0°F-1.7°C 8.2°F-13.2°C 41% 1.0 mph SSE1.6 kmh SSE 7.0 mph11.3 kmh 210.82 in7139.2 mb 0.00 in0.0 mm 0.00 in0.0 mm 0.00 in0.0 mm
06:15 AM 29.0°F-1.7°C 8.2°F-13.2°C 41% Calm Calm 7.0 mph11.3 kmh 210.82 in7139.2 mb 0.00 in0.0 mm 0.00 in0.0 mm 0.00 in0.0 mm
06:20 AM 29.0°F-1.7°C 8.2°F-13.2°C 41% Calm Calm 7.0 mph11.3 kmh 210.82 in7139.2 mb 0.00 in0.0 mm 0.00 in0.0 mm 0.00 in0.0 mm
06:25 AM 29.0°F-1.7°C 8.2°F-13.2°C 41% Calm Calm 7.0 mph11.3 kmh 210.81 in7138.8 mb 0.00 in0.0 mm 0.00 in0.0 mm 0.00 in0.0 mm
06:30 AM 30.0°F-1.1°C 9.7°F-12.4°C 42% 2.0 mph SSW3.2 kmh SSW 7.0 mph11.3 kmh 210.81 in7138.8 mb 0.00 in0.0 mm 0.00 in0.0 mm 0.00 in0.0 mm
06:35 AM 30.0°F-1.1°C 10.2°F-12.1°C 43% 1.0 mph SSW1.6 kmh SSW 7.0 mph11.3 kmh 210.80 in7138.5 mb 0.00 in0.0 mm 0.00 in0.0 mm 0.00 in0.0 mm
06:40 AM 30.0°F-1.1°C 9.7°F-12.4°C 42% 1.0 mph S1.6 kmh S 7.0 mph11.3 kmh 210.80 in7138.5 mb 0.00 in0.0 mm 0.00 in0.0 mm 0.00 in0.0 mm
06:45 AM 30.0°F-1.1°C 9.7°F-12.4°C 42% 2.0 mph SSE3.2 kmh SSE 7.0 mph11.3 kmh 210.81 in7138.8 mb 0.00 in0.0 mm 0.00 in0.0 mm 0.00 in0.0 mm
06:50 AM 30.0°F-1.1°C 10.2°F-12.1°C 43% 2.0 mph SSW3.2 kmh SSW 7.0 mph11.3 kmh 210.81 in7138.8 mb 0.00 in0.0 mm 0.00 in0.0 mm 0.00 in0.0 mm
06:55 AM 30.0°F-1.1°C 9.7°F-12.4°C 42% 2.0 mph S3.2 kmh S 7.0 mph11.3 kmh 210.81 in7138.8 mb 0.00 in0.0 mm 0.00 in0.0 mm 0.00 in0.0 mm
07:00 AM 30.0°F-1.1°C 9.1°F-12.7°C 41% 3.0 mph S4.8 kmh S 7.0 mph11.3 kmh 210.81 in7138.8 mb 0.00 in0.0 mm 0.00 in0.0 mm 0.00 in0.0 mm
07:05 AM 30.0°F-1.1°C 9.1°F-12.7°C 41% 2.0 mph SSE3.2 kmh SSE 7.0 mph11.3 kmh 210.81 in7138.8 mb 0.00 in0.0 mm 0.00 in0.0 mm 0.00 in0.0 mm
07:10 AM 30.0°F-1.1°C 9.7°F-12.4°C 42% 3.0 mph S4.8 kmh S 7.0 mph11.3 kmh 210.81 in7138.8 mb 0.00 in0.0 mm 0.00 in0.0 mm 0.00 in0.0 mm
07:15 AM 30.0°F-1.1°C 9.7°F-12.4°C 42% 2.0 mph SSE3.2 kmh SSE 7.0 mph11.3 kmh 210.81 in7138.8 mb 0.00 in0.0 mm 0.00 in0.0 mm 0.00 in0.0 mm
07:20 AM 29.0°F-1.7°C 8.2°F-13.2°C 41% 1.0 mph SSE1.6 kmh SSE 7.0 mph11.3 kmh 210.81 in7138.8 mb 0.00 in0.0 mm 0.00 in0.0 mm 0.00 in0.0 mm
07:25 AM 30.0°F-1.1°C 10.7°F-11.8°C 44% 2.0 mph S3.2 kmh S 7.0 mph11.3 kmh 210.81 in7138.8 mb 0.00 in0.0 mm 0.00 in0.0 mm 0.00 in0.0 mm
07:30 AM 29.0°F-1.7°C 9.8°F-12.3°C 44% Calm Calm 7.0 mph11.3 kmh 210.81 in7138.8 mb 0.00 in0.0 mm 0.00 in0.0 mm 0.00 in0.0 mm
07:35 AM 29.0°F-1.7°C 9.8°F-12.3°C 44% Calm Calm 7.0 mph11.3 kmh 210.82 in7139.2 mb 0.00 in0.0 mm 0.00 in0.0 mm 0.00 in0.0 mm
07:40 AM 29.0°F-1.7°C 9.8°F-12.3°C 44% Calm Calm 7.0 mph11.3 kmh 210.82 in7139.2 mb 0.00 in0.0 mm 0.00 in0.0 mm 0.00 in0.0 mm
07:45 AM 30.0°F-1.1°C 10.7°F-11.8°C 44% 3.0 mph SW4.8 kmh SW 7.0 mph11.3 kmh 210.81 in7138.8 mb 0.00 in0.0 mm 0.00 in0.0 mm 0.00 in0.0 mm
07:50 AM 30.0°F-1.1°C 10.7°F-11.8°C 44% 1.0 mph SSW1.6 kmh SSW 7.0 mph11.3 kmh 210.81 in7138.8 mb 0.00 in0.0 mm 0.00 in0.0 mm 0.00 in0.0 mm
07:55 AM 31.0°F-0.6°C 11.6°F-11.3°C 44% Calm Calm 7.0 mph11.3 kmh 210.80 in7138.5 mb 0.00 in0.0 mm 0.00 in0.0 mm 0.00 in0.0 mm
08:00 AM 31.0°F-0.6°C 11.6°F-11.3°C 44% Calm Calm 7.0 mph11.3 kmh 210.80 in7138.5 mb 0.00 in0.0 mm 0.00 in0.0 mm 0.00 in0.0 mm
08:05 AM 31.0°F-0.6°C 11.6°F-11.3°C 44% 2.0 mph SW3.2 kmh SW 7.0 mph11.3 kmh 210.81 in7138.8 mb 0.00 in0.0 mm 0.00 in0.0 mm 0.00 in0.0 mm
08:10 AM 31.0°F-0.6°C 11.6°F-11.3°C 44% 2.0 mph SW3.2 kmh SW 7.0 mph11.3 kmh 210.81 in7138.8 mb 0.00 in0.0 mm 0.00 in0.0 mm 0.00 in0.0 mm
08:15 AM 32.0°F0.0°C 12.5°F-10.8°C 44% 1.0 mph S1.6 kmh S 7.0 mph11.3 kmh 210.81 in7138.8 mb 0.00 in0.0 mm 0.00 in0.0 mm 0.00 in0.0 mm
08:20 AM 32.0°F0.0°C 12.5°F-10.8°C 44% 2.0 mph S3.2 kmh S 7.0 mph11.3 kmh 210.81 in7138.8 mb 0.00 in0.0 mm 0.00 in0.0 mm 0.00 in0.0 mm
08:25 AM 32.0°F0.0°C 12.5°F-10.8°C 44% 1.0 mph S1.6 kmh S 7.0 mph11.3 kmh 210.81 in7138.8 mb 0.00 in0.0 mm 0.00 in0.0 mm 0.00 in0.0 mm
08:30 AM 33.0°F0.6°C 13.4°F-10.3°C 44% Calm Calm 7.0 mph11.3 kmh 210.81 in7138.8 mb 0.00 in0.0 mm 0.00 in0.0 mm 0.00 in0.0 mm
08:35 AM 33.0°F0.6°C 13.4°F-10.3°C 44% Calm Calm 7.0 mph11.3 kmh 210.81 in7138.8 mb 0.00 in0.0 mm 0.00 in0.0 mm 0.00 in0.0 mm
08:40 AM 33.0°F0.6°C 13.4°F-10.3°C 44% 2.0 mph SW3.2 kmh SW 7.0 mph11.3 kmh 210.81 in7138.8 mb 0.00 in0.0 mm 0.00 in0.0 mm 0.00 in0.0 mm
08:45 AM 34.0°F1.1°C 14.4°F-9.8°C 44% 3.0 mph SSW4.8 kmh SSW 7.0 mph11.3 kmh 210.81 in7138.8 mb 0.00 in0.0 mm 0.00 in0.0 mm 0.00 in0.0 mm
08:50 AM 34.0°F1.1°C 14.4°F-9.8°C 44% 5.0 mph S8.0 kmh S 7.0 mph11.3 kmh 210.81 in7138.8 mb 0.00 in0.0 mm 0.00 in0.0 mm 0.00 in0.0 mm
08:55 AM 35.0°F1.7°C 15.3°F-9.3°C 44% 6.0 mph SW9.7 kmh SW 7.0 mph11.3 kmh 210.81 in7138.8 mb 0.00 in0.0 mm 0.00 in0.0 mm 0.00 in0.0 mm
09:00 AM 35.0°F1.7°C 14.2°F-9.9°C 42% 2.0 mph SSE3.2 kmh SSE 7.0 mph11.3 kmh 210.81 in7138.8 mb 0.00 in0.0 mm 0.00 in0.0 mm 0.00 in0.0 mm
09:05 AM 36.0°F2.2°C 16.2°F-8.8°C 44% 2.0 mph S3.2 kmh S 7.0 mph11.3 kmh 210.82 in7139.2 mb 0.00 in0.0 mm 0.00 in0.0 mm 0.00 in0.0 mm
09:10 AM 36.0°F2.2°C 16.2°F-8.8°C 44% 2.0 mph SSW3.2 kmh SSW 7.0 mph11.3 kmh 210.82 in7139.2 mb 0.00 in0.0 mm 0.00 in0.0 mm 0.00 in0.0 mm
09:15 AM 37.0°F2.8°C 17.1°F-8.3°C 44% 4.0 mph SSW6.4 kmh SSW 7.0 mph11.3 kmh 210.83 in7139.5 mb 0.00 in0.0 mm 0.00 in0.0 mm 0.00 in0.0 mm
09:20 AM 37.0°F2.8°C 17.1°F-8.3°C 44% 3.0 mph SSW4.8 kmh SSW 7.0 mph11.3 kmh 210.83 in7139.5 mb 0.00 in0.0 mm 0.00 in0.0 mm 0.00 in0.0 mm
09:25 AM 37.0°F2.8°C 17.1°F-8.3°C 44% 5.0 mph SW8.0 kmh SW 9.0 mph14.5 kmh 210.83 in7139.5 mb 0.00 in0.0 mm 0.00 in0.0 mm 0.00 in0.0 mm
09:30 AM 38.0°F3.3°C 18.5°F-7.5°C 45% 5.0 mph SW8.0 kmh SW 9.0 mph14.5 kmh 210.83 in7139.5 mb 0.00 in0.0 mm 0.00 in0.0 mm 0.00 in0.0 mm
09:35 AM 39.0°F3.9°C 19.4°F-7.0°C 45% 3.0 mph S4.8 kmh S 9.0 mph14.5 kmh 210.82 in7139.2 mb 0.00 in0.0 mm 0.00 in0.0 mm 0.00 in0.0 mm
09:40 AM 39.0°F3.9°C 21.0°F-6.1°C 48% 2.0 mph SE3.2 kmh SE 13.0 mph20.9 kmh 210.82 in7139.2 mb 0.00 in0.0 mm 0.00 in0.0 mm 0.00 in0.0 mm
09:45 AM 40.0°F4.4°C 21.9°F-5.6°C 48% 6.0 mph SW9.7 kmh SW 13.0 mph20.9 kmh 210.81 in7138.8 mb 0.00 in0.0 mm 0.00 in0.0 mm 0.00 in0.0 mm
09:50 AM 41.0°F5.0°C 21.8°F-5.7°C 46% 9.0 mph SW14.5 kmh SW 13.0 mph20.9 kmh 210.81 in7138.8 mb 0.00 in0.0 mm 0.00 in0.0 mm 0.00 in0.0 mm
09:55 AM 41.0°F5.0°C 21.8°F-5.7°C 46% 7.0 mph SW11.3 kmh SW 13.0 mph20.9 kmh 210.81 in7138.8 mb 0.00 in0.0 mm 0.00 in0.0 mm 0.00 in0.0 mm
10:00 AM 42.0°F5.6°C 22.7°F-5.2°C 46% 3.0 mph S4.8 kmh S 13.0 mph20.9 kmh 210.81 in7138.8 mb 0.00 in0.0 mm 0.00 in0.0 mm 0.00 in0.0 mm
10:05 AM 42.0°F5.6°C 22.7°F-5.2°C 46% 5.0 mph SSW8.0 kmh SSW 13.0 mph20.9 kmh 210.80 in7138.5 mb 0.00 in0.0 mm 0.00 in0.0 mm 0.00 in0.0 mm
10:10 AM 43.0°F6.1°C 23.6°F-4.7°C 46% 11.0 mph SW17.7 kmh SW 13.0 mph20.9 kmh 210.80 in7138.5 mb 0.00 in0.0 mm 0.00 in0.0 mm 0.00 in0.0 mm
10:15 AM 43.0°F6.1°C 23.6°F-4.7°C 46% 7.0 mph SW11.3 kmh SW 15.0 mph24.1 kmh 210.80 in7138.5 mb 0.00 in0.0 mm 0.00 in0.0 mm 0.00 in0.0 mm
10:20 AM 44.0°F6.7°C 24.5°F-4.2°C 46% 6.0 mph SW9.7 kmh SW 15.0 mph24.1 kmh 210.80 in7138.5 mb 0.00 in0.0 mm 0.00 in0.0 mm 0.00 in0.0 mm
10:25 AM 45.0°F7.2°C 24.4°F-4.2°C 44% 1.0 mph NW1.6 kmh NW 15.0 mph24.1 kmh 210.79 in7138.2 mb 0.00 in0.0 mm 0.00 in0.0 mm 0.00 in0.0 mm
10:30 AM 45.0°F7.2°C 24.4°F-4.2°C 44% 5.0 mph WSW8.0 kmh WSW 15.0 mph24.1 kmh 210.79 in7138.2 mb 0.00 in0.0 mm 0.00 in0.0 mm 0.00 in0.0 mm
10:35 AM 46.0°F7.8°C 24.7°F-4.1°C 43% 3.0 mph SW4.8 kmh SW 15.0 mph24.1 kmh 210.78 in7137.8 mb 0.00 in0.0 mm 0.00 in0.0 mm 0.00 in0.0 mm
10:40 AM 46.0°F7.8°C 25.3°F-3.7°C 44% 3.0 mph SSE4.8 kmh SSE 15.0 mph24.1 kmh 210.78 in7137.8 mb 0.00 in0.0 mm 0.00 in0.0 mm 0.00 in0.0 mm
10:45 AM 46.0°F7.8°C 24.7°F-4.1°C 43% 2.0 mph WNW3.2 kmh WNW 15.0 mph24.1 kmh 210.78 in7137.8 mb 0.00 in0.0 mm 0.00 in0.0 mm 0.00 in0.0 mm
10:50 AM 47.0°F8.3°C 26.2°F-3.2°C 44% 3.0 mph SW4.8 kmh SW 15.0 mph24.1 kmh 210.78 in7137.8 mb 0.00 in0.0 mm 0.00 in0.0 mm 0.00 in0.0 mm
10:55 AM 47.0°F8.3°C 25.6°F-3.6°C 43% 6.0 mph WSW9.7 kmh WSW 15.0 mph24.1 kmh 210.77 in7137.5 mb 0.00 in0.0 mm 0.00 in0.0 mm 0.00 in0.0 mm
11:00 AM 48.0°F8.9°C 26.5°F-3.1°C 43% 1.0 mph SE1.6 kmh SE 15.0 mph24.1 kmh 210.77 in7137.5 mb 0.00 in0.0 mm 0.00 in0.0 mm 0.00 in0.0 mm
11:05 AM 48.0°F8.9°C 26.5°F-3.1°C 43% 1.0 mph S1.6 kmh S 15.0 mph24.1 kmh 210.77 in7137.5 mb 0.00 in0.0 mm 0.00 in0.0 mm 0.00 in0.0 mm
11:10 AM 49.0°F9.4°C 27.4°F-2.6°C 43% 1.0 mph SW1.6 kmh SW 15.0 mph24.1 kmh 210.77 in7137.5 mb 0.00 in0.0 mm 0.00 in0.0 mm 0.00 in0.0 mm
11:15 AM 49.0°F9.4°C 27.4°F-2.6°C 43% 3.0 mph SW4.8 kmh SW 15.0 mph24.1 kmh 210.77 in7137.5 mb 0.00 in0.0 mm 0.00 in0.0 mm 0.00 in0.0 mm
11:20 AM 49.0°F9.4°C 27.4°F-2.6°C 43% 1.0 mph SSW1.6 kmh SSW 15.0 mph24.1 kmh 210.77 in7137.5 mb 0.00 in0.0 mm 0.00 in0.0 mm 0.00 in0.0 mm
11:25 AM 50.0°F10.0°C 28.3°F-2.1°C 43% 6.0 mph NW9.7 kmh NW 15.0 mph24.1 kmh 210.75 in7136.8 mb 0.00 in0.0 mm 0.00 in0.0 mm 0.00 in0.0 mm
11:30 AM 50.0°F10.0°C 28.3°F-2.1°C 43% 6.0 mph SW9.7 kmh SW 15.0 mph24.1 kmh 210.75 in7136.8 mb 0.00 in0.0 mm 0.00 in0.0 mm 0.00 in0.0 mm
11:35 AM 51.0°F10.6°C 29.8°F-1.2°C 44% 1.0 mph NW1.6 kmh NW 15.0 mph24.1 kmh 210.75 in7136.8 mb 0.00 in0.0 mm 0.00 in0.0 mm 0.00 in0.0 mm
11:40 AM 51.0°F10.6°C 29.8°F-1.2°C 44% 7.0 mph SSW11.3 kmh SSW 15.0 mph24.1 kmh 210.75 in7136.8 mb 0.00 in0.0 mm 0.00 in0.0 mm 0.00 in0.0 mm
11:45 AM 52.0°F11.1°C 30.7°F-0.7°C 44% 5.0 mph W8.0 kmh W 15.0 mph24.1 kmh 210.75 in7136.8 mb 0.00 in0.0 mm 0.00 in0.0 mm 0.00 in0.0 mm
11:50 AM 52.0°F11.1°C 30.7°F-0.7°C 44% 6.0 mph SSW9.7 kmh SSW 15.0 mph24.1 kmh 210.75 in7136.8 mb 0.00 in0.0 mm 0.00 in0.0 mm 0.00 in0.0 mm
11:55 AM 52.0°F11.1°C 30.7°F-0.7°C 44% 3.0 mph SSE4.8 kmh SSE 15.0 mph24.1 kmh 210.74 in7136.5 mb 0.00 in0.0 mm 0.00 in0.0 mm 0.00 in0.0 mm
12:10 PM 53.0°F11.7°C 31.6°F-0.2°C 44% 3.0 mph SW4.8 kmh SW 15.0 mph24.1 kmh 210.73 in7136.1 mb 0.00 in0.0 mm 0.00 in0.0 mm 0.00 in0.0 mm
12:30 PM 54.0°F12.2°C 32.0°F0.0°C 43% 2.0 mph W3.2 kmh W 15.0 mph24.1 kmh 210.73 in7136.1 mb 0.00 in0.0 mm 0.00 in0.0 mm 0.00 in0.0 mm
12:55 PM 54.0°F12.2°C 32.0°F0.0°C 43% 7.0 mph S11.3 kmh S 16.0 mph25.7 kmh 210.71 in7135.5 mb 0.00 in0.0 mm 0.00 in0.0 mm 0.00 in0.0 mm
01:15 PM 56.0°F13.3°C 33.8°F1.0°C 43% 4.0 mph WSW6.4 kmh WSW 16.0 mph25.7 kmh 210.70 in7135.1 mb 0.00 in0.0 mm 0.00 in0.0 mm 0.00 in0.0 mm
01:55 PM 58.0°F14.4°C 35.6°F2.0°C 43% 9.0 mph NNW14.5 kmh NNW 16.0 mph25.7 kmh 210.68 in7134.4 mb 0.00 in0.0 mm 0.00 in0.0 mm 0.00 in0.0 mm
02:00 PM 59.0°F15.0°C 36.5°F2.5°C 43% 9.0 mph WNW14.5 kmh WNW 16.0 mph25.7 kmh 210.68 in7134.4 mb 0.00 in0.0 mm 0.00 in0.0 mm 0.00 in0.0 mm
02:05 PM 58.0°F14.4°C 35.6°F2.0°C 43% 1.0 mph E1.6 kmh E 16.0 mph25.7 kmh 210.68 in7134.4 mb 0.00 in0.0 mm 0.00 in0.0 mm 0.00 in0.0 mm
02:10 PM 59.0°F15.0°C 36.5°F2.5°C 43% 3.0 mph NW4.8 kmh NW 16.0 mph25.7 kmh 210.68 in7134.4 mb 0.00 in0.0 mm 0.00 in0.0 mm 0.00 in0.0 mm
02:15 PM 59.0°F15.0°C 37.1°F2.8°C 44% 7.0 mph NW11.3 kmh NW 16.0 mph25.7 kmh 210.67 in7134.1 mb 0.00 in0.0 mm 0.00 in0.0 mm 0.00 in0.0 mm
02:20 PM 60.0°F15.6°C 37.4°F3.0°C 43% 3.0 mph NNW4.8 kmh NNW 16.0 mph25.7 kmh 210.67 in7134.1 mb 0.00 in0.0 mm 0.00 in0.0 mm 0.00 in0.0 mm
02:30 PM 60.0°F15.6°C 37.4°F3.0°C 43% 3.0 mph NNW4.8 kmh NNW 16.0 mph25.7 kmh 210.66 in7133.8 mb 0.00 in0.0 mm 0.00 in0.0 mm 0.00 in0.0 mm
02:35 PM 60.0°F15.6°C 38.0°F3.3°C 44% 4.0 mph WNW6.4 kmh WNW 16.0 mph25.7 kmh 210.65 in7133.4 mb 0.00 in0.0 mm 0.00 in0.0 mm 0.00 in0.0 mm
02:40 PM 60.0°F15.6°C 37.4°F3.0°C 43% 7.0 mph SW11.3 kmh SW 16.0 mph25.7 kmh 210.65 in7133.4 mb 0.00 in0.0 mm 0.00 in0.0 mm 0.00 in0.0 mm
02:45 PM 61.0°F16.1°C 38.9°F3.8°C 44% 2.0 mph S3.2 kmh S 16.0 mph25.7 kmh 210.64 in7133.1 mb 0.00 in0.0 mm 0.00 in0.0 mm 0.00 in0.0 mm
02:50 PM 61.0°F16.1°C 38.3°F3.5°C 43% 4.0 mph ESE6.4 kmh ESE 16.0 mph25.7 kmh 210.64 in7133.1 mb 0.00 in0.0 mm 0.00 in0.0 mm 0.00 in0.0 mm
02:55 PM 61.0°F16.1°C 38.9°F3.8°C 44% 3.0 mph S4.8 kmh S 16.0 mph25.7 kmh 210.65 in7133.4 mb 0.00 in0.0 mm 0.00 in0.0 mm 0.00 in0.0 mm
03:00 PM 61.0°F16.1°C 38.3°F3.5°C 43% 2.0 mph NW3.2 kmh NW 16.0 mph25.7 kmh 210.65 in7133.4 mb 0.00 in0.0 mm 0.00 in0.0 mm 0.00 in0.0 mm
03:05 PM 61.0°F16.1°C 38.9°F3.8°C 44% 6.0 mph NW9.7 kmh NW 16.0 mph25.7 kmh 210.65 in7133.4 mb 0.00 in0.0 mm 0.00 in0.0 mm 0.00 in0.0 mm
03:10 PM 61.0°F16.1°C 38.3°F3.5°C 43% 10.0 mph WSW16.1 kmh WSW 16.0 mph25.7 kmh 210.65 in7133.4 mb 0.00 in0.0 mm 0.00 in0.0 mm 0.00 in0.0 mm
03:15 PM 61.0°F16.1°C 38.9°F3.8°C 44% 3.0 mph WNW4.8 kmh WNW 16.0 mph25.7 kmh 210.65 in7133.4 mb 0.00 in0.0 mm 0.00 in0.0 mm 0.00 in0.0 mm
03:20 PM 61.0°F16.1°C 38.3°F3.5°C 43% 7.0 mph N11.3 kmh N 16.0 mph25.7 kmh 210.65 in7133.4 mb 0.00 in0.0 mm 0.00 in0.0 mm 0.00 in0.0 mm
03:25 PM 62.0°F16.7°C 39.8°F4.3°C 44% 3.0 mph W4.8 kmh W 16.0 mph25.7 kmh 210.64 in7133.1 mb 0.00 in0.0 mm 0.00 in0.0 mm 0.00 in0.0 mm
03:30 PM 62.0°F16.7°C 39.2°F4.0°C 43% 4.0 mph SW6.4 kmh SW 16.0 mph25.7 kmh 210.64 in7133.1 mb 0.00 in0.0 mm 0.00 in0.0 mm 0.00 in0.0 mm
03:35 PM 62.0°F16.7°C 39.8°F4.3°C 44% 6.0 mph NW9.7 kmh NW 16.0 mph25.7 kmh 210.64 in7133.1 mb 0.00 in0.0 mm 0.00 in0.0 mm 0.00 in0.0 mm
03:40 PM 62.0°F16.7°C 39.8°F4.3°C 44% 7.0 mph SW11.3 kmh SW 16.0 mph25.7 kmh 210.64 in7133.1 mb 0.00 in0.0 mm 0.00 in0.0 mm 0.00 in0.0 mm
03:45 PM 62.0°F16.7°C 39.8°F4.3°C 44% 2.0 mph N3.2 kmh N 16.0 mph25.7 kmh 210.64 in7133.1 mb 0.00 in0.0 mm 0.00 in0.0 mm 0.00 in0.0 mm
03:50 PM 63.0°F17.2°C 40.7°F4.8°C 44% 2.0 mph NE3.2 kmh NE 16.0 mph25.7 kmh 210.64 in7133.1 mb 0.00 in0.0 mm 0.00 in0.0 mm 0.00 in0.0 mm
03:55 PM 62.0°F16.7°C 39.8°F4.3°C 44% 3.0 mph SSW4.8 kmh SSW 16.0 mph25.7 kmh 210.64 in7133.1 mb 0.00 in0.0 mm 0.00 in0.0 mm 0.00 in0.0 mm
04:00 PM 62.0°F16.7°C 39.8°F4.3°C 44% 2.0 mph E3.2 kmh E 16.0 mph25.7 kmh 210.64 in7133.1 mb 0.00 in0.0 mm 0.00 in0.0 mm 0.00 in0.0 mm
04:05 PM 62.0°F16.7°C 39.8°F4.3°C 44% 8.0 mph WNW12.9 kmh WNW 16.0 mph25.7 kmh 210.64 in7133.1 mb 0.00 in0.0 mm 0.00 in0.0 mm 0.00 in0.0 mm
04:10 PM 63.0°F17.2°C 40.7°F4.8°C 44% 4.0 mph W6.4 kmh W 16.0 mph25.7 kmh 210.64 in7133.1 mb 0.00 in0.0 mm 0.00 in0.0 mm 0.00 in0.0 mm
04:15 PM 63.0°F17.2°C 40.7°F4.8°C 44% 6.0 mph S9.7 kmh S 16.0 mph25.7 kmh 210.64 in7133.1 mb 0.00 in0.0 mm 0.00 in0.0 mm 0.00 in0.0 mm
04:20 PM 63.0°F17.2°C 40.7°F4.8°C 44% 6.0 mph SW9.7 kmh SW 16.0 mph25.7 kmh 210.64 in7133.1 mb 0.00 in0.0 mm 0.00 in0.0 mm 0.00 in0.0 mm
04:25 PM 63.0°F17.2°C 40.7°F4.8°C 44% 2.0 mph NW3.2 kmh NW 16.0 mph25.7 kmh 210.63 in7132.8 mb 0.00 in0.0 mm 0.00 in0.0 mm 0.00 in0.0 mm
04:30 PM 63.0°F17.2°C 40.7°F4.8°C 44% 1.0 mph S1.6 kmh S 16.0 mph25.7 kmh 210.63 in7132.8 mb 0.00 in0.0 mm 0.00 in0.0 mm 0.00 in0.0 mm
04:35 PM 63.0°F17.2°C 40.7°F4.8°C 44% 3.0 mph NW4.8 kmh NW 16.0 mph25.7 kmh 210.63 in7132.8 mb 0.00 in0.0 mm 0.00 in0.0 mm 0.00 in0.0 mm
04:40 PM 63.0°F17.2°C 40.7°F4.8°C 44% 3.0 mph E4.8 kmh E 16.0 mph25.7 kmh 210.63 in7132.8 mb 0.00 in0.0 mm 0.00 in0.0 mm 0.00 in0.0 mm
04:45 PM 64.0°F17.8°C 41.6°F5.3°C 44% 4.0 mph WNW6.4 kmh WNW 16.0 mph25.7 kmh 210.62 in7132.4 mb 0.00 in0.0 mm 0.00 in0.0 mm 0.00 in0.0 mm
04:50 PM 63.0°F17.2°C 40.7°F4.8°C 44% 3.0 mph SW4.8 kmh SW 16.0 mph25.7 kmh 210.62 in7132.4 mb 0.00 in0.0 mm 0.00 in0.0 mm 0.00 in0.0 mm
04:55 PM 63.0°F17.2°C 40.7°F4.8°C 44% 1.0 mph W1.6 kmh W 16.0 mph25.7 kmh 210.63 in7132.8 mb 0.00 in0.0 mm 0.00 in0.0 mm 0.00 in0.0 mm
05:00 PM 63.0°F17.2°C 40.7°F4.8°C 44% 7.0 mph W11.3 kmh W 16.0 mph25.7 kmh 210.63 in7132.8 mb 0.00 in0.0 mm 0.00 in0.0 mm 0.00 in0.0 mm
05:05 PM 63.0°F17.2°C 40.7°F4.8°C 44% 7.0 mph SW11.3 kmh SW 16.0 mph25.7 kmh 210.63 in7132.8 mb 0.00 in0.0 mm 0.00 in0.0 mm 0.00 in0.0 mm
05:10 PM 63.0°F17.2°C 40.7°F4.8°C 44% 2.0 mph SSE3.2 kmh SSE 16.0 mph25.7 kmh 210.63 in7132.8 mb 0.00 in0.0 mm 0.00 in0.0 mm 0.00 in0.0 mm
05:15 PM 63.0°F17.2°C 40.7°F4.8°C 44% 2.0 mph SW3.2 kmh SW 16.0 mph25.7 kmh 210.63 in7132.8 mb 0.00 in0.0 mm 0.00 in0.0 mm 0.00 in0.0 mm
05:20 PM 63.0°F17.2°C 40.7°F4.8°C 44% 2.0 mph N3.2 kmh N 16.0 mph25.7 kmh 210.63 in7132.8 mb 0.00 in0.0 mm 0.00 in0.0 mm 0.00 in0.0 mm
05:25 PM 63.0°F17.2°C 40.7°F4.8°C 44% 6.0 mph WSW9.7 kmh WSW 16.0 mph25.7 kmh 210.63 in7132.8 mb 0.00 in0.0 mm 0.00 in0.0 mm 0.00 in0.0 mm
05:30 PM 63.0°F17.2°C 40.7°F4.8°C 44% 7.0 mph S11.3 kmh S 16.0 mph25.7 kmh 210.63 in7132.8 mb 0.00 in0.0 mm 0.00 in0.0 mm 0.00 in0.0 mm
05:35 PM 63.0°F17.2°C 40.7°F4.8°C 44% 6.0 mph WSW9.7 kmh WSW 16.0 mph25.7 kmh 210.63 in7132.8 mb 0.00 in0.0 mm 0.00 in0.0 mm 0.00 in0.0 mm
05:40 PM 63.0°F17.2°C 40.7°F4.8°C 44% 3.0 mph NW4.8 kmh NW 16.0 mph25.7 kmh 210.63 in7132.8 mb 0.00 in0.0 mm 0.00 in0.0 mm 0.00 in0.0 mm
05:45 PM 63.0°F17.2°C 40.7°F4.8°C 44% 1.0 mph WSW1.6 kmh WSW 16.0 mph25.7 kmh 210.63 in7132.8 mb 0.00 in0.0 mm 0.00 in0.0 mm 0.00 in0.0 mm
05:50 PM 62.0°F16.7°C 39.8°F4.3°C 44% 3.0 mph SE4.8 kmh SE 16.0 mph25.7 kmh 210.63 in7132.8 mb 0.00 in0.0 mm 0.00 in0.0 mm 0.00 in0.0 mm
05:55 PM 63.0°F17.2°C 40.7°F4.8°C 44% 3.0 mph WSW4.8 kmh WSW 16.0 mph25.7 kmh 210.64 in7133.1 mb 0.00 in0.0 mm 0.00 in0.0 mm 0.00 in0.0 mm
06:00 PM 62.0°F16.7°C 39.8°F4.3°C 44% 6.0 mph SW9.7 kmh SW 16.0 mph25.7 kmh 210.64 in7133.1 mb 0.00 in0.0 mm 0.00 in0.0 mm 0.00 in0.0 mm
06:05 PM 62.0°F16.7°C 39.8°F4.3°C 44% 5.0 mph SW8.0 kmh SW 16.0 mph25.7 kmh 210.65 in7133.4 mb 0.00 in0.0 mm 0.00 in0.0 mm 0.00 in0.0 mm
06:10 PM 62.0°F16.7°C 39.8°F4.3°C 44% 1.0 mph W1.6 kmh W 16.0 mph25.7 kmh 210.65 in7133.4 mb 0.00 in0.0 mm 0.00 in0.0 mm 0.00 in0.0 mm
06:15 PM 61.0°F16.1°C 38.9°F3.8°C 44% 7.0 mph SW11.3 kmh SW 16.0 mph25.7 kmh 210.65 in7133.4 mb 0.00 in0.0 mm 0.00 in0.0 mm 0.00 in0.0 mm
06:20 PM 61.0°F16.1°C 38.9°F3.8°C 44% 6.0 mph SW9.7 kmh SW 16.0 mph25.7 kmh 210.65 in7133.4 mb 0.00 in0.0 mm 0.00 in0.0 mm 0.00 in0.0 mm
06:25 PM 60.0°F15.6°C 38.0°F3.3°C 44% 6.0 mph SW9.7 kmh SW 16.0 mph25.7 kmh 210.66 in7133.8 mb 0.00 in0.0 mm 0.00 in0.0 mm 0.00 in0.0 mm
06:30 PM 60.0°F15.6°C 38.0°F3.3°C 44% 7.0 mph SW11.3 kmh SW 16.0 mph25.7 kmh 210.66 in7133.8 mb 0.00 in0.0 mm 0.00 in0.0 mm 0.00 in0.0 mm
06:35 PM 60.0°F15.6°C 38.0°F3.3°C 44% 2.0 mph WSW3.2 kmh WSW 16.0 mph25.7 kmh 210.65 in7133.4 mb 0.00 in0.0 mm 0.00 in0.0 mm 0.00 in0.0 mm
06:40 PM 59.0°F15.0°C 37.1°F2.8°C 44% 2.0 mph SW3.2 kmh SW 16.0 mph25.7 kmh 210.65 in7133.4 mb 0.00 in0.0 mm 0.00 in0.0 mm 0.00 in0.0 mm
06:45 PM 59.0°F15.0°C 37.1°F2.8°C 44% 3.0 mph SW4.8 kmh SW 16.0 mph25.7 kmh 210.66 in7133.8 mb 0.00 in0.0 mm 0.00 in0.0 mm 0.00 in0.0 mm
06:50 PM 58.0°F14.4°C 36.2°F2.3°C 44% 5.0 mph SW8.0 kmh SW 16.0 mph25.7 kmh 210.66 in7133.8 mb 0.00 in0.0 mm 0.00 in0.0 mm 0.00 in0.0 mm
06:55 PM 58.0°F14.4°C 36.2°F2.3°C 44% 4.0 mph SW6.4 kmh SW 16.0 mph25.7 kmh 210.66 in7133.8 mb 0.00 in0.0 mm 0.00 in0.0 mm 0.00 in0.0 mm
07:00 PM 58.0°F14.4°C 36.2°F2.3°C 44% 4.0 mph SW6.4 kmh SW 16.0 mph25.7 kmh 210.66 in7133.8 mb 0.00 in0.0 mm 0.00 in0.0 mm 0.00 in0.0 mm
07:05 PM 58.0°F14.4°C 36.2°F2.3°C 44% 5.0 mph SW8.0 kmh SW 16.0 mph25.7 kmh 210.66 in7133.8 mb 0.00 in0.0 mm 0.00 in0.0 mm 0.00 in0.0 mm
07:10 PM 57.0°F13.9°C 35.3°F1.8°C 44% 4.0 mph SW6.4 kmh SW 16.0 mph25.7 kmh 210.66 in7133.8 mb 0.00 in0.0 mm 0.00 in0.0 mm 0.00 in0.0 mm
07:15 PM 57.0°F13.9°C 35.3°F1.8°C 44% 6.0 mph S9.7 kmh S 16.0 mph25.7 kmh 210.66 in7133.8 mb 0.00 in0.0 mm 0.00 in0.0 mm 0.00 in0.0 mm
07:20 PM 57.0°F13.9°C 35.3°F1.8°C 44% 6.0 mph SW9.7 kmh SW 16.0 mph25.7 kmh 210.66 in7133.8 mb 0.00 in0.0 mm 0.00 in0.0 mm 0.00 in0.0 mm
07:25 PM 57.0°F13.9°C 35.3°F1.8°C 44% 4.0 mph SW6.4 kmh SW 16.0 mph25.7 kmh 210.67 in7134.1 mb 0.00 in0.0 mm 0.00 in0.0 mm 0.00 in0.0 mm
07:30 PM 56.0°F13.3°C 34.4°F1.3°C 44% 2.0 mph SW3.2 kmh SW 16.0 mph25.7 kmh 210.67 in7134.1 mb 0.00 in0.0 mm 0.00 in0.0 mm 0.00 in0.0 mm
07:35 PM 56.0°F13.3°C 34.4°F1.3°C 44% 3.0 mph SW4.8 kmh SW 16.0 mph25.7 kmh 210.67 in7134.1 mb 0.00 in0.0 mm 0.00 in0.0 mm 0.00 in0.0 mm
07:40 PM 55.0°F12.8°C 33.4°F0.8°C 44% 3.0 mph SW4.8 kmh SW 16.0 mph25.7 kmh 210.67 in7134.1 mb 0.00 in0.0 mm 0.00 in0.0 mm 0.00 in0.0 mm
07:45 PM 55.0°F12.8°C 33.4°F0.8°C 44% 1.0 mph SW1.6 kmh SW 16.0 mph25.7 kmh 210.68 in7134.4 mb 0.00 in0.0 mm 0.00 in0.0 mm 0.00 in0.0 mm
07:50 PM 55.0°F12.8°C 33.4°F0.8°C 44% Calm Calm 16.0 mph25.7 kmh 210.68 in7134.4 mb 0.00 in0.0 mm 0.00 in0.0 mm 0.00 in0.0 mm
07:55 PM 55.0°F12.8°C 33.4°F0.8°C 44% Calm Calm 16.0 mph25.7 kmh 210.68 in7134.4 mb 0.00 in0.0 mm 0.00 in0.0 mm 0.00 in0.0 mm
08:00 PM 54.0°F12.2°C 32.5°F0.3°C 44% Calm Calm 16.0 mph25.7 kmh 210.68 in7134.4 mb 0.00 in0.0 mm 0.00 in0.0 mm 0.00 in0.0 mm
08:05 PM 54.0°F12.2°C 32.5°F0.3°C 44% 1.0 mph SW1.6 kmh SW 16.0 mph25.7 kmh 210.69 in7134.8 mb 0.00 in0.0 mm 0.00 in0.0 mm 0.00 in0.0 mm
08:10 PM 54.0°F12.2°C 32.5°F0.3°C 44% 1.0 mph WSW1.6 kmh WSW 16.0 mph25.7 kmh 210.69 in7134.8 mb 0.00 in0.0 mm 0.00 in0.0 mm 0.00 in0.0 mm
08:15 PM 54.0°F12.2°C 32.5°F0.3°C 44% Calm Calm 16.0 mph25.7 kmh 210.69 in7134.8 mb 0.00 in0.0 mm 0.00 in0.0 mm 0.00 in0.0 mm
08:20 PM 53.0°F11.7°C 31.6°F-0.2°C 44% 1.0 mph W1.6 kmh W 16.0 mph25.7 kmh 210.69 in7134.8 mb 0.00 in0.0 mm 0.00 in0.0 mm 0.00 in0.0 mm
08:25 PM 53.0°F11.7°C 31.6°F-0.2°C 44% 1.0 mph WSW1.6 kmh WSW 16.0 mph25.7 kmh 210.69 in7134.8 mb 0.00 in0.0 mm 0.00 in0.0 mm 0.00 in0.0 mm
08:30 PM 53.0°F11.7°C 31.6°F-0.2°C 44% 1.0 mph SW1.6 kmh SW 16.0 mph25.7 kmh 210.69 in7134.8 mb 0.00 in0.0 mm 0.00 in0.0 mm 0.00 in0.0 mm
08:35 PM 53.0°F11.7°C 31.6°F-0.2°C 44% Calm Calm 16.0 mph25.7 kmh 210.69 in7134.8 mb 0.00 in0.0 mm 0.00 in0.0 mm 0.00 in0.0 mm
08:40 PM 53.0°F11.7°C 31.6°F-0.2°C 44% Calm Calm 16.0 mph25.7 kmh 210.69 in7134.8 mb 0.00 in0.0 mm 0.00 in0.0 mm 0.00 in0.0 mm
08:45 PM 53.0°F11.7°C 31.6°F-0.2°C 44% 2.0 mph W3.2 kmh W 16.0 mph25.7 kmh 210.69 in7134.8 mb 0.00 in0.0 mm 0.00 in0.0 mm 0.00 in0.0 mm
08:50 PM 53.0°F11.7°C 31.6°F-0.2°C 44% 1.0 mph W1.6 kmh W 16.0 mph25.7 kmh 210.69 in7134.8 mb 0.00 in0.0 mm 0.00 in0.0 mm 0.00 in0.0 mm
08:55 PM 53.0°F11.7°C 31.6°F-0.2°C 44% 1.0 mph W1.6 kmh W 16.0 mph25.7 kmh 210.69 in7134.8 mb 0.00 in0.0 mm 0.00 in0.0 mm 0.00 in0.0 mm
09:00 PM 52.0°F11.1°C 30.7°F-0.7°C 44% 3.0 mph W4.8 kmh W 16.0 mph25.7 kmh 210.69 in7134.8 mb 0.00 in0.0 mm 0.00 in0.0 mm 0.00 in0.0 mm
09:05 PM 52.0°F11.1°C 31.3°F-0.4°C 45% 2.0 mph W3.2 kmh W 16.0 mph25.7 kmh 210.69 in7134.8 mb 0.00 in0.0 mm 0.00 in0.0 mm 0.00 in0.0 mm
09:10 PM 52.0°F11.1°C 31.3°F-0.4°C 45% 2.0 mph W3.2 kmh W 16.0 mph25.7 kmh 210.69 in7134.8 mb 0.00 in0.0 mm 0.00 in0.0 mm 0.00 in0.0 mm
09:15 PM 52.0°F11.1°C 31.3°F-0.4°C 45% 2.0 mph W3.2 kmh W 16.0 mph25.7 kmh 210.69 in7134.8 mb 0.00 in0.0 mm 0.00 in0.0 mm 0.00 in0.0 mm
09:20 PM 52.0°F11.1°C 30.7°F-0.7°C 44% 1.0 mph W1.6 kmh W 16.0 mph25.7 kmh 210.69 in7134.8 mb 0.00 in0.0 mm 0.00 in0.0 mm 0.00 in0.0 mm
09:25 PM 52.0°F11.1°C 30.7°F-0.7°C 44% 1.0 mph WSW1.6 kmh WSW 16.0 mph25.7 kmh 210.69 in7134.8 mb 0.00 in0.0 mm 0.00 in0.0 mm 0.00 in0.0 mm
09:30 PM 52.0°F11.1°C 30.7°F-0.7°C 44% 1.0 mph WSW1.6 kmh WSW 16.0 mph25.7 kmh 210.69 in7134.8 mb 0.00 in0.0 mm 0.00 in0.0 mm 0.00 in0.0 mm
09:35 PM 52.0°F11.1°C 31.3°F-0.4°C 45% Calm Calm 16.0 mph25.7 kmh 210.69 in7134.8 mb 0.00 in0.0 mm 0.00 in0.0 mm 0.00 in0.0 mm
09:40 PM 51.0°F10.6°C 29.8°F-1.2°C 44% 1.0 mph WSW1.6 kmh WSW 16.0 mph25.7 kmh 210.69 in7134.8 mb 0.00 in0.0 mm 0.00 in0.0 mm 0.00 in0.0 mm
09:45 PM 52.0°F11.1°C 31.3°F-0.4°C 45% Calm Calm 16.0 mph25.7 kmh 210.69 in7134.8 mb 0.00 in0.0 mm 0.00 in0.0 mm 0.00 in0.0 mm
09:50 PM 51.0°F10.6°C 30.4°F-0.9°C 45% 1.0 mph WSW1.6 kmh WSW 16.0 mph25.7 kmh 210.69 in7134.8 mb 0.00 in0.0 mm 0.00 in0.0 mm 0.00 in0.0 mm
09:55 PM 52.0°F11.1°C 30.7°F-0.7°C 44% 1.0 mph SW1.6 kmh SW 16.0 mph25.7 kmh 210.69 in7134.8 mb 0.00 in0.0 mm 0.00 in0.0 mm 0.00 in0.0 mm
10:00 PM 51.0°F10.6°C 29.8°F-1.2°C 44% 1.0 mph SW1.6 kmh SW 16.0 mph25.7 kmh 210.69 in7134.8 mb 0.00 in0.0 mm 0.00 in0.0 mm 0.00 in0.0 mm
10:05 PM 51.0°F10.6°C 30.4°F-0.9°C 45% 1.0 mph SW1.6 kmh SW 16.0 mph25.7 kmh 210.70 in7135.1 mb 0.00 in0.0 mm 0.00 in0.0 mm 0.00 in0.0 mm
10:10 PM 51.0°F10.6°C 30.4°F-0.9°C 45% Calm Calm 16.0 mph25.7 kmh 210.70 in7135.1 mb 0.00 in0.0 mm 0.00 in0.0 mm 0.00 in0.0 mm
10:15 PM 51.0°F10.6°C 30.4°F-0.9°C 45% Calm Calm 16.0 mph25.7 kmh 210.70 in7135.1 mb 0.00 in0.0 mm 0.00 in0.0 mm 0.00 in0.0 mm
10:20 PM 50.0°F10.0°C 28.9°F-1.7°C 44% 1.0 mph SW1.6 kmh SW 16.0 mph25.7 kmh 210.70 in7135.1 mb 0.00 in0.0 mm 0.00 in0.0 mm 0.00 in0.0 mm
10:25 PM 50.0°F10.0°C 28.9°F-1.7°C 44% Calm Calm 16.0 mph25.7 kmh 210.70 in7135.1 mb 0.00 in0.0 mm 0.00 in0.0 mm 0.00 in0.0 mm
10:30 PM 50.0°F10.0°C 28.9°F-1.7°C 44% Calm Calm 16.0 mph25.7 kmh 210.70 in7135.1 mb 0.00 in0.0 mm 0.00 in0.0 mm 0.00 in0.0 mm
10:35 PM 50.0°F10.0°C 28.9°F-1.7°C 44% Calm Calm 16.0 mph25.7 kmh 210.70 in7135.1 mb 0.00 in0.0 mm 0.00 in0.0 mm 0.00 in0.0 mm
10:40 PM 50.0°F10.0°C 28.9°F-1.7°C 44% Calm Calm 16.0 mph25.7 kmh 210.70 in7135.1 mb 0.00 in0.0 mm 0.00 in0.0 mm 0.00 in0.0 mm
10:45 PM 50.0°F10.0°C 28.9°F-1.7°C 44% Calm Calm 16.0 mph25.7 kmh 210.70 in7135.1 mb 0.00 in0.0 mm 0.00 in0.0 mm 0.00 in0.0 mm
10:50 PM 50.0°F10.0°C 28.9°F-1.7°C 44% Calm Calm 16.0 mph25.7 kmh 210.70 in7135.1 mb 0.00 in0.0 mm 0.00 in0.0 mm 0.00 in0.0 mm
10:55 PM 50.0°F10.0°C 28.9°F-1.7°C 44% Calm Calm 16.0 mph25.7 kmh 210.70 in7135.1 mb 0.00 in0.0 mm 0.00 in0.0 mm 0.00 in0.0 mm
11:00 PM 50.0°F10.0°C 28.9°F-1.7°C 44% Calm Calm 16.0 mph25.7 kmh 210.70 in7135.1 mb 0.00 in0.0 mm 0.00 in0.0 mm 0.00 in0.0 mm
11:05 PM 50.0°F10.0°C 28.9°F-1.7°C 44% 2.0 mph SW3.2 kmh SW 16.0 mph25.7 kmh 210.71 in7135.5 mb 0.00 in0.0 mm 0.00 in0.0 mm 0.00 in0.0 mm
11:10 PM 50.0°F10.0°C 28.9°F-1.7°C 44% 2.0 mph SSW3.2 kmh SSW 16.0 mph25.7 kmh 210.71 in7135.5 mb 0.00 in0.0 mm 0.00 in0.0 mm 0.00 in0.0 mm
11:15 PM 50.0°F10.0°C 28.9°F-1.7°C 44% 3.0 mph SSW4.8 kmh SSW 16.0 mph25.7 kmh 210.71 in7135.5 mb 0.00 in0.0 mm 0.00 in0.0 mm 0.00 in0.0 mm
11:20 PM 50.0°F10.0°C 28.9°F-1.7°C 44% 4.0 mph SSW6.4 kmh SSW 16.0 mph25.7 kmh 210.71 in7135.5 mb 0.00 in0.0 mm 0.00 in0.0 mm 0.00 in0.0 mm
11:25 PM 50.0°F10.0°C 28.9°F-1.7°C 44% 2.0 mph S3.2 kmh S 16.0 mph25.7 kmh 210.71 in7135.5 mb 0.00 in0.0 mm 0.00 in0.0 mm 0.00 in0.0 mm
11:30 PM 49.0°F9.4°C 28.0°F-2.2°C 44% 3.0 mph SSW4.8 kmh SSW 16.0 mph25.7 kmh 210.71 in7135.5 mb 0.00 in0.0 mm 0.00 in0.0 mm 0.00 in0.0 mm
11:35 PM 50.0°F10.0°C 28.9°F-1.7°C 44% 4.0 mph SW6.4 kmh SW 16.0 mph25.7 kmh 210.72 in7135.8 mb 0.00 in0.0 mm 0.00 in0.0 mm 0.00 in0.0 mm
11:40 PM 49.0°F9.4°C 28.0°F-2.2°C 44% 3.0 mph SSW4.8 kmh SSW 16.0 mph25.7 kmh 210.72 in7135.8 mb 0.00 in0.0 mm 0.00 in0.0 mm 0.00 in0.0 mm
11:45 PM 49.0°F9.4°C 28.0°F-2.2°C 44% Calm Calm 16.0 mph25.7 kmh 210.73 in7136.1 mb 0.00 in0.0 mm 0.00 in0.0 mm 0.00 in0.0 mm
11:50 PM 49.0°F9.4°C 28.0°F-2.2°C 44% 3.0 mph WSW4.8 kmh WSW 16.0 mph25.7 kmh 210.73 in7136.1 mb 0.00 in0.0 mm 0.00 in0.0 mm 0.00 in0.0 mm
11:55 PM 48.0°F8.9°C 27.6°F-2.4°C 45% 1.0 mph WSW1.6 kmh WSW 16.0 mph25.7 kmh 210.73 in7136.1 mb 0.00 in0.0 mm 0.00 in0.0 mm 0.00 in0.0 mm